Time;durP1;ratioP1;P1;durP2;ratioP2;P2;SDS_P1;SDS_P2;PMS_P1;PMS_P2;Temp;Humidity;BMP_temperature;BMP_pressure;BME280_temperature;BME280_humidity;BME280_pressure;Samples;Min_cycle;Max_cycle;Signal;HPM_P1;HPM_P2
2023/05/06 00:00:47;;;;;;;18.25;10.35;;;;;;;;;;5024356;28;20056;-69
2023/05/06 00:03:12;;;;;;;19.23;10.02;;;;;;;;;;5028947;28;20486;-69
2023/05/06 00:05:38;;;;;;;20.55;9.85;;;;;;;;;;5030583;28;20384;-69
2023/05/06 00:08:04;;;;;;;20.15;9.40;;;;;;;;;;5030083;28;20383;-67
2023/05/06 00:10:29;;;;;;;18.98;9.18;;;;;;;;;;5029909;28;20475;-70
2023/05/06 00:12:54;;;;;;;16.63;9.55;;;;;;;;;;5029703;28;20028;-67
2023/05/06 00:15:19;;;;;;;13.35;8.63;;;;;;;;;;5042519;22;20099;-63
2023/05/06 00:17:45;;;;;;;13.68;9.07;;;;;;;;;;5023104;28;20079;-57
2023/05/06 00:20:10;;;;;;;16.98;9.63;;;;;;;;;;5030396;28;20029;-64
2023/05/06 00:22:35;;;;;;;15.77;9.38;;;;;;;;;;5030294;28;20029;-64
2023/05/06 00:25:02;;;;;;;13.93;9.23;;;;;;;;;;5019148;28;20030;-64
2023/05/06 00:27:27;;;;;;;19.98;10.20;;;;;;;;;;5017950;28;20017;-64
2023/05/06 00:29:52;;;;;;;16.90;9.82;;;;;;;;;;5006289;28;20022;-64
2023/05/06 00:32:17;;;;;;;15.05;8.90;;;;;;;;;;5008637;28;20087;-64
2023/05/06 00:34:43;;;;;;;16.10;9.48;;;;;;;;;;5009945;28;20456;-63
2023/05/06 00:37:08;;;;;;;17.80;10.13;;;;;;;;;;5028256;28;20037;-64
2023/05/06 00:39:33;;;;;;;19.98;10.43;;;;;;;;;;5029917;28;20033;-63
2023/05/06 00:42:01;;;;;;;17.13;10.45;;;;;;;;;;5012372;28;20025;-65
2023/05/06 00:44:26;;;;;;;26.23;9.20;;;;;;;;;;5009926;28;20466;-65
2023/05/06 00:46:51;;;;;;;18.25;9.90;;;;;;;;;;5028571;28;20519;-61
2023/05/06 00:49:17;;;;;;;15.73;9.80;;;;;;;;;;5031551;28;20059;-64
2023/05/06 00:51:42;;;;;;;16.90;8.55;;;;;;;;;;5018004;28;20025;-63
2023/05/06 00:54:08;;;;;;;18.50;9.55;;;;;;;;;;5019907;28;20144;-65
2023/05/06 00:56:33;;;;;;;15.07;9.35;;;;;;;;;;5016053;28;20017;-61
2023/05/06 00:58:58;;;;;;;18.25;9.50;;;;;;;;;;5028580;28;20029;-64
2023/05/06 01:01:23;;;;;;;18.58;9.25;;;;;;;;;;5020683;28;20076;-63
2023/05/06 01:03:50;;;;;;;17.23;9.20;;;;;;;;;;5019019;28;20019;-63
2023/05/06 01:06:21;;;;;;;17.60;9.63;;;;;;;;;;5012088;28;20017;-63
2023/05/06 01:08:53;;;;;;;17.65;9.32;;;;;;;;;;5009128;28;20049;-64
2023/05/06 01:11:23;;;;;;;18.08;9.63;;;;;;;;;;5009835;28;20030;-63
2023/05/06 01:13:56;;;;;;;20.23;9.60;;;;;;;;;;5022458;28;20020;-64
2023/05/06 01:16:22;;;;;;;16.38;9.68;;;;;;;;;;5016852;28;20055;-65
2023/05/06 01:18:48;;;;;;;15.32;9.75;;;;;;;;;;5010442;28;20467;-64
2023/05/06 01:21:13;;;;;;;16.00;9.85;;;;;;;;;;5029433;28;20026;-63
2023/05/06 01:23:51;;;;;;;17.80;9.30;;;;;;;;;;5028764;28;20041;-64
2023/05/06 01:26:16;;;;;;;20.92;9.93;;;;;;;;;;5018683;28;20021;-63
2023/05/06 01:28:41;;;;;;;18.20;9.32;;;;;;;;;;5009870;28;20026;-63
2023/05/06 01:31:12;;;;;;;15.63;9.75;;;;;;;;;;5012665;28;20491;-64
2023/05/06 01:33:40;;;;;;;15.13;9.10;;;;;;;;;;5029250;28;20053;-63
2023/05/06 01:36:23;;;;;;;16.33;9.43;;;;;;;;;;5030214;28;20018;-63
2023/05/06 01:38:56;;;;;;;19.98;9.35;;;;;;;;;;5024474;28;20026;-64
2023/05/06 01:41:23;;;;;;;18.17;10.15;;;;;;;;;;5022807;28;20021;-61
2023/05/06 01:43:50;;;;;;;18.17;9.93;;;;;;;;;;5030286;28;20676;-60
2023/05/06 01:46:19;;;;;;;19.67;9.68;;;;;;;;;;5025883;28;20386;-63
2023/05/06 01:48:45;;;;;;;17.42;10.68;;;;;;;;;;5011398;28;20032;-63
2023/05/06 01:51:10;;;;;;;16.60;9.45;;;;;;;;;;5011291;28;20029;-62
2023/05/06 01:53:35;;;;;;;21.52;10.88;;;;;;;;;;5016154;28;20024;-63
2023/05/06 01:56:01;;;;;;;18.63;10.35;;;;;;;;;;5017559;28;20479;-64
2023/05/06 01:58:26;;;;;;;17.92;10.05;;;;;;;;;;5029011;28;20029;-64
2023/05/06 02:00:51;;;;;;;17.55;10.20;;;;;;;;;;5013780;28;20118;-59
2023/05/06 02:03:16;;;;;;;18.95;10.27;;;;;;;;;;5026937;28;20594;-64
2023/05/06 02:05:42;;;;;;;16.00;10.35;;;;;;;;;;5028969;28;20471;-62
2023/05/06 02:08:07;;;;;;;20.17;10.07;;;;;;;;;;5027644;28;20471;-63
2023/05/06 02:10:32;;;;;;;17.70;11.10;;;;;;;;;;5021749;28;20021;-63
2023/05/06 02:12:57;;;;;;;19.38;11.05;;;;;;;;;;5015811;28;20467;-65
2023/05/06 02:15:23;;;;;;;17.10;10.65;;;;;;;;;;5011283;28;20034;-63
2023/05/06 02:17:48;;;;;;;23.30;11.35;;;;;;;;;;5015235;28;20025;-61
2023/05/06 02:20:13;;;;;;;18.40;10.93;;;;;;;;;;5023208;28;20101;-64
2023/05/06 02:22:38;;;;;;;21.00;11.13;;;;;;;;;;5027369;28;20018;-61
2023/05/06 02:25:03;;;;;;;19.73;11.43;;;;;;;;;;5012141;28;20026;-64
2023/05/06 02:27:29;;;;;;;23.95;10.63;;;;;;;;;;5020219;28;20021;-65
2023/05/06 02:29:54;;;;;;;18.88;11.05;;;;;;;;;;5019843;28;20026;-64
2023/05/06 02:32:19;;;;;;;19.80;11.20;;;;;;;;;;5026226;28;20107;-61
2023/05/06 02:34:45;;;;;;;22.23;11.20;;;;;;;;;;5012370;28;20018;-64
2023/05/06 02:37:10;;;;;;;19.98;10.27;;;;;;;;;;5012060;28;20076;-63
2023/05/06 02:39:35;;;;;;;26.48;12.63;;;;;;;;;;5012876;28;20026;-63
2023/05/06 02:42:01;;;;;;;19.98;10.75;;;;;;;;;;5025883;28;20018;-64
2023/05/06 02:44:26;;;;;;;18.83;10.98;;;;;;;;;;5012557;28;20026;-62
2023/05/06 02:46:52;;;;;;;18.10;10.10;;;;;;;;;;5025480;28;20129;-63
2023/05/06 02:49:17;;;;;;;19.33;10.25;;;;;;;;;;5012343;28;20069;-62
2023/05/06 02:51:42;;;;;;;19.75;10.70;;;;;;;;;;5025183;28;20156;-64
2023/05/06 02:54:07;;;;;;;16.08;10.13;;;;;;;;;;5012374;28;20032;-63
2023/05/06 02:56:33;;;;;;;18.35;11.02;;;;;;;;;;5025508;28;20024;-63
2023/05/06 02:58:59;;;;;;;20.42;10.60;;;;;;;;;;5023158;28;20513;-63
2023/05/06 03:01:24;;;;;;;18.30;10.73;;;;;;;;;;5018591;28;20031;-64
2023/05/06 03:03:49;;;;;;;21.27;10.55;;;;;;;;;;5031743;28;20017;-64
2023/05/06 03:06:15;;;;;;;25.70;11.80;;;;;;;;;;5031493;28;20020;-64
2023/05/06 03:08:40;;;;;;;21.45;11.73;;;;;;;;;;5019110;28;20026;-63
2023/05/06 03:11:05;;;;;;;23.00;11.52;;;;;;;;;;5025435;28;20030;-60
2023/05/06 03:13:30;;;;;;;22.92;11.57;;;;;;;;;;5011732;28;20030;-63
2023/05/06 03:15:56;;;;;;;20.25;10.68;;;;;;;;;;5022632;28;20072;-61
2023/05/06 03:18:21;;;;;;;19.17;10.48;;;;;;;;;;5015314;28;20486;-63
2023/05/06 03:20:47;;;;;;;18.60;11.25;;;;;;;;;;5011613;28;20056;-62
2023/05/06 03:23:12;;;;;;;18.60;11.07;;;;;;;;;;5021913;28;20025;-63
2023/05/06 03:25:37;;;;;;;20.95;11.45;;;;;;;;;;5031202;28;20045;-63
2023/05/06 03:28:02;;;;;;;20.52;11.77;;;;;;;;;;5016358;28;20121;-64
2023/05/06 03:30:28;;;;;;;24.73;12.30;;;;;;;;;;5010417;28;20030;-63
2023/05/06 03:32:53;;;;;;;16.02;10.93;;;;;;;;;;5022055;28;20415;-64
2023/05/06 03:35:19;;;;;;;19.17;12.27;;;;;;;;;;5027272;28;20483;-64
2023/05/06 03:37:44;;;;;;;20.15;11.88;;;;;;;;;;5031293;28;20479;-60
2023/05/06 03:40:09;;;;;;;20.88;11.90;;;;;;;;;;5017714;28;20033;-64
2023/05/06 03:42:35;;;;;;;19.75;12.02;;;;;;;;;;5021234;28;20022;-64
2023/05/06 03:45:00;;;;;;;24.65;12.70;;;;;;;;;;5023419;28;20025;-64
2023/05/06 03:47:25;;;;;;;19.25;12.00;;;;;;;;;;5019410;28;20022;-62
2023/05/06 03:49:50;;;;;;;27.05;12.13;;;;;;;;;;5016076;28;20029;-65
2023/05/06 03:52:16;;;;;;;21.75;13.32;;;;;;;;;;5022628;28;20020;-60
2023/05/06 03:54:41;;;;;;;21.55;12.10;;;;;;;;;;5010433;28;20060;-63
2023/05/06 03:57:06;;;;;;;20.77;13.02;;;;;;;;;;5010724;28;20109;-62
2023/05/06 03:59:31;;;;;;;26.30;12.10;;;;;;;;;;5007667;28;20061;-63
2023/05/06 04:01:57;;;;;;;20.48;12.80;;;;;;;;;;5021286;28;20097;-64
2023/05/06 04:04:22;;;;;;;19.50;13.10;;;;;;;;;;5016194;28;20026;-64
2023/05/06 04:06:47;;;;;;;24.88;13.25;;;;;;;;;;5017590;28;20083;-63
2023/05/06 04:09:12;;;;;;;24.05;13.77;;;;;;;;;;5019009;28;20026;-62
2023/05/06 04:11:38;;;;;;;22.58;12.55;;;;;;;;;;5030292;28;20402;-64
2023/05/06 04:14:03;;;;;;;22.95;13.00;;;;;;;;;;5016295;28;20528;-62
2023/05/06 04:16:28;;;;;;;23.98;12.93;;;;;;;;;;5006918;28;20199;-64
2023/05/06 04:18:54;;;;;;;26.08;12.40;;;;;;;;;;5010156;28;20084;-62
2023/05/06 04:21:19;;;;;;;25.95;13.27;;;;;;;;;;5016927;28;20029;-63
2023/05/06 04:23:44;;;;;;;25.30;13.05;;;;;;;;;;5016961;28;20542;-61
2023/05/06 04:26:10;;;;;;;24.33;12.73;;;;;;;;;;5023881;28;20041;-63
2023/05/06 04:28:35;;;;;;;22.58;13.20;;;;;;;;;;5006473;28;20100;-60
2023/05/06 04:31:01;;;;;;;20.30;13.00;;;;;;;;;;5011233;28;20534;-64
2023/05/06 04:33:26;;;;;;;21.83;13.25;;;;;;;;;;5023395;28;20021;-64
2023/05/06 04:35:55;;;;;;;22.45;14.20;;;;;;;;;;5017576;28;20022;-62
2023/05/06 04:38:21;;;;;;;21.27;14.13;;;;;;;;;;5016255;28;20542;-63
2023/05/06 04:40:46;;;;;;;20.52;12.85;;;;;;;;;;5021977;28;20511;-63
2023/05/06 04:43:12;;;;;;;22.75;13.38;;;;;;;;;;5009812;28;20022;-61
2023/05/06 04:45:38;;;;;;;22.48;13.52;;;;;;;;;;5010215;28;20172;-63
2023/05/06 04:48:04;;;;;;;23.67;13.82;;;;;;;;;;5024066;28;20022;-60
2023/05/06 04:50:30;;;;;;;26.20;13.35;;;;;;;;;;5022341;28;20049;-64
2023/05/06 04:52:55;;;;;;;19.95;12.60;;;;;;;;;;5023833;28;20025;-64
2023/05/06 04:55:21;;;;;;;23.90;14.20;;;;;;;;;;5029519;28;20151;-61
2023/05/06 04:57:46;;;;;;;20.55;14.10;;;;;;;;;;5029812;28;20471;-64
2023/05/06 05:00:11;;;;;;;23.75;13.90;;;;;;;;;;5027417;28;20021;-62
2023/05/06 05:02:37;;;;;;;26.35;13.95;;;;;;;;;;5024922;28;20077;-64
2023/05/06 05:05:02;;;;;;;21.75;13.27;;;;;;;;;;5022226;28;20022;-64
2023/05/06 05:07:27;;;;;;;23.27;13.10;;;;;;;;;;5022657;28;20014;-65
2023/05/06 05:09:52;;;;;;;22.33;13.10;;;;;;;;;;5016824;28;20021;-59
2023/05/06 05:12:17;;;;;;;26.27;14.43;;;;;;;;;;5029730;28;20052;-62
2023/05/06 05:14:43;;;;;;;31.75;14.98;;;;;;;;;;5022189;28;20068;-64
2023/05/06 05:17:08;;;;;;;24.15;13.55;;;;;;;;;;5004700;28;20113;-64
2023/05/06 05:19:33;;;;;;;22.27;13.40;;;;;;;;;;5017729;28;20028;-64
2023/05/06 05:21:58;;;;;;;22.02;13.80;;;;;;;;;;5016617;28;20018;-62
2023/05/06 05:24:24;;;;;;;28.02;14.45;;;;;;;;;;5022262;28;20024;-63
2023/05/06 05:26:49;;;;;;;22.45;14.52;;;;;;;;;;5009430;28;20021;-61
2023/05/06 05:29:14;;;;;;;30.17;16.55;;;;;;;;;;5004851;28;20061;-63
2023/05/06 05:31:39;;;;;;;25.25;13.75;;;;;;;;;;5007189;28;20053;-61
2023/05/06 05:34:05;;;;;;;25.90;14.68;;;;;;;;;;5028156;28;20482;-64
2023/05/06 05:36:30;;;;;;;23.13;14.13;;;;;;;;;;5016664;28;20033;-65
2023/05/06 05:38:56;;;;;;;22.98;13.35;;;;;;;;;;5022755;28;20030;-65
2023/05/06 05:41:21;;;;;;;29.08;15.38;;;;;;;;;;5022074;28;20073;-59
2023/05/06 05:43:46;;;;;;;24.05;13.40;;;;;;;;;;5022336;28;20504;-64
2023/05/06 05:46:11;;;;;;;24.33;14.55;;;;;;;;;;5009222;28;20026;-62
2023/05/06 05:48:38;;;;;;;28.17;13.70;;;;;;;;;;5009390;28;20030;-62
2023/05/06 05:51:03;;;;;;;23.50;14.73;;;;;;;;;;5015589;28;20028;-64
2023/05/06 05:53:29;;;;;;;28.35;14.75;;;;;;;;;;5014205;28;20029;-62
2023/05/06 05:55:54;;;;;;;25.33;14.70;;;;;;;;;;5032680;28;20029;-64
2023/05/06 05:58:19;;;;;;;30.52;15.95;;;;;;;;;;5018719;28;20033;-63
2023/05/06 06:00:44;;;;;;;29.52;15.93;;;;;;;;;;5018128;28;20098;-63
2023/05/06 06:03:10;;;;;;;26.40;15.50;;;;;;;;;;5000124;28;20022;-62
2023/05/06 06:05:35;;;;;;;29.58;14.95;;;;;;;;;;5023809;28;20013;-63
2023/05/06 06:08:00;;;;;;;23.23;13.60;;;;;;;;;;5013523;28;20480;-65
2023/05/06 06:10:25;;;;;;;22.02;13.80;;;;;;;;;;5002557;28;20049;-64
2023/05/06 06:12:51;;;;;;;27.88;13.82;;;;;;;;;;5025151;28;20037;-64
2023/05/06 06:15:16;;;;;;;20.95;13.73;;;;;;;;;;5021362;28;20030;-65
2023/05/06 06:17:42;;;;;;;24.25;13.38;;;;;;;;;;5013867;28;20029;-64
2023/05/06 06:20:07;;;;;;;29.20;14.35;;;;;;;;;;5017576;28;20022;-62
2023/05/06 06:22:33;;;;;;;26.90;14.18;;;;;;;;;;5012110;28;20025;-64
2023/05/06 06:24:58;;;;;;;25.85;12.98;;;;;;;;;;5025012;28;20022;-65
2023/05/06 06:27:23;;;;;;;22.85;13.32;;;;;;;;;;5012568;28;20068;-64
2023/05/06 06:29:48;;;;;;;28.70;13.43;;;;;;;;;;5020081;28;20384;-61
2023/05/06 06:32:14;;;;;;;21.63;11.90;;;;;;;;;;5016494;28;20156;-65
2023/05/06 06:34:39;;;;;;;22.83;12.25;;;;;;;;;;5017233;28;20022;-62
2023/05/06 06:37:04;;;;;;;26.27;13.23;;;;;;;;;;4999136;28;20487;-63
2023/05/06 06:39:30;;;;;;;23.80;13.70;;;;;;;;;;5019953;28;20026;-63
2023/05/06 06:41:57;;;;;;;22.48;12.93;;;;;;;;;;5018597;28;20025;-63
2023/05/06 06:44:22;;;;;;;27.95;11.35;;;;;;;;;;5028145;28;20096;-64
2023/05/06 06:46:47;;;;;;;25.83;13.27;;;;;;;;;;5013531;28;20496;-64
2023/05/06 06:49:12;;;;;;;21.05;11.50;;;;;;;;;;5018547;28;20425;-64
2023/05/06 06:51:37;;;;;;;18.50;11.88;;;;;;;;;;5013149;28;20080;-62
2023/05/06 06:54:03;;;;;;;21.88;12.07;;;;;;;;;;5017761;28;20483;-64
2023/05/06 06:56:28;;;;;;;27.48;11.48;;;;;;;;;;5025475;28;20021;-63
2023/05/06 06:58:53;;;;;;;21.17;11.93;;;;;;;;;;5011114;28;20511;-63
2023/05/06 07:01:18;;;;;;;32.70;14.10;;;;;;;;;;5011274;28;20029;-64
2023/05/06 07:03:44;;;;;;;27.13;13.32;;;;;;;;;;5009670;28;20029;-64
2023/05/06 07:06:09;;;;;;;23.27;12.45;;;;;;;;;;4999757;28;20522;-64
2023/05/06 07:08:34;;;;;;;26.27;13.93;;;;;;;;;;4995665;28;20018;-64
2023/05/06 07:10:59;;;;;;;24.25;12.57;;;;;;;;;;5007270;28;20033;-64
2023/05/06 07:13:25;;;;;;;25.25;12.18;;;;;;;;;;5018540;28;20101;-61
2023/05/06 07:15:50;;;;;;;21.50;12.25;;;;;;;;;;5013968;28;20388;-64
2023/05/06 07:18:15;;;;;;;32.90;13.85;;;;;;;;;;5011003;28;20022;-63
2023/05/06 07:20:40;;;;;;;30.58;14.02;;;;;;;;;;5006472;28;20129;-64
2023/05/06 07:23:06;;;;;;;29.60;14.60;;;;;;;;;;5014701;28;20107;-65
2023/05/06 07:25:31;;;;;;;31.55;15.27;;;;;;;;;;5022929;28;20017;-65
2023/05/06 07:27:56;;;;;;;29.25;15.93;;;;;;;;;;5013595;28;20018;-63
2023/05/06 07:30:22;;;;;;;30.98;14.73;;;;;;;;;;5016962;28;20097;-64
2023/05/06 07:32:47;;;;;;;27.77;14.93;;;;;;;;;;5017333;28;20028;-63
2023/05/06 07:35:12;;;;;;;29.80;14.75;;;;;;;;;;5005411;28;20030;-65
2023/05/06 07:37:38;;;;;;;40.13;15.23;;;;;;;;;;5008114;28;20026;-69
2023/05/06 07:40:03;;;;;;;26.65;15.18;;;;;;;;;;5006888;28;20015;-61
2023/05/06 07:42:28;;;;;;;31.65;15.95;;;;;;;;;;5019144;28;20702;-63
2023/05/06 07:44:54;;;;;;;30.70;14.82;;;;;;;;;;5000479;28;20018;-62
2023/05/06 07:47:30;;;;;;;30.75;15.70;;;;;;;;;;5013069;28;20018;-64
2023/05/06 07:49:55;;;;;;;32.97;15.60;;;;;;;;;;5011013;28;20030;-65
2023/05/06 07:52:21;;;;;;;29.90;15.02;;;;;;;;;;5014351;28;20036;-63
2023/05/06 07:54:46;;;;;;;30.38;14.93;;;;;;;;;;5008519;28;20529;-61
2023/05/06 07:57:11;;;;;;;35.50;15.15;;;;;;;;;;5019532;28;20026;-63
2023/05/06 07:59:36;;;;;;;38.78;16.85;;;;;;;;;;5000756;28;20527;-63
2023/05/06 08:02:02;;;;;;;29.45;16.38;;;;;;;;;;5012156;28;20391;-63
2023/05/06 08:04:27;;;;;;;32.50;15.90;;;;;;;;;;5015930;28;20699;-65
2023/05/06 08:06:52;;;;;;;28.08;14.35;;;;;;;;;;5026317;28;20022;-65
2023/05/06 08:09:18;;;;;;;28.52;14.95;;;;;;;;;;5018633;28;20045;-63
2023/05/06 08:11:43;;;;;;;28.83;14.85;;;;;;;;;;5010672;28;20057;-61
2023/05/06 08:14:08;;;;;;;25.17;15.48;;;;;;;;;;5008819;28;20037;-63
2023/05/06 08:16:34;;;;;;;28.27;15.07;;;;;;;;;;5010116;28;20033;-63
2023/05/06 08:18:59;;;;;;;25.92;14.73;;;;;;;;;;5006968;28;20084;-63
2023/05/06 08:21:25;;;;;;;28.45;13.73;;;;;;;;;;5005866;28;20026;-62
2023/05/06 08:23:50;;;;;;;23.35;14.52;;;;;;;;;;5012757;28;20025;-64
2023/05/06 08:26:15;;;;;;;26.42;14.20;;;;;;;;;;5015891;28;20024;-64
2023/05/06 08:28:40;;;;;;;24.63;14.52;;;;;;;;;;5010578;28;20022;-64
2023/05/06 08:31:06;;;;;;;25.33;14.27;;;;;;;;;;5010556;28;20081;-64
2023/05/06 08:33:31;;;;;;;26.80;15.27;;;;;;;;;;5013426;28;20013;-63
2023/05/06 08:35:57;;;;;;;26.30;13.65;;;;;;;;;;4987577;28;20061;-63
2023/05/06 08:38:22;;;;;;;24.17;13.88;;;;;;;;;;4990058;28;20101;-62
2023/05/06 08:40:48;;;;;;;29.33;13.50;;;;;;;;;;4986037;28;20026;-61
2023/05/06 08:43:13;;;;;;;20.70;13.18;;;;;;;;;;4990089;28;20577;-63
2023/05/06 08:45:39;;;;;;;22.65;13.35;;;;;;;;;;4986857;28;21753;-64
2023/05/06 08:48:05;;;;;;;20.83;12.48;;;;;;;;;;4986378;28;20037;-63
2023/05/06 08:50:31;;;;;;;21.92;13.18;;;;;;;;;;4988454;28;20025;-63
2023/05/06 08:52:56;;;;;;;18.63;11.65;;;;;;;;;;4983443;28;20030;-65
2023/05/06 08:55:23;;;;;;;21.35;11.73;;;;;;;;;;4986528;28;20045;-61
2023/05/06 08:57:49;;;;;;;18.65;11.25;;;;;;;;;;4989178;28;20579;-63
2023/05/06 09:00:14;;;;;;;19.10;10.68;;;;;;;;;;4987560;28;20499;-62
2023/05/06 09:02:40;;;;;;;17.80;9.90;;;;;;;;;;4986176;28;20026;-63
2023/05/06 09:05:07;;;;;;;17.77;10.77;;;;;;;;;;4989063;28;20040;-64
2023/05/06 09:07:32;;;;;;;18.73;10.13;;;;;;;;;;4986443;28;20061;-63
2023/05/06 09:09:57;;;;;;;16.92;9.35;;;;;;;;;;4988245;28;20053;-63
2023/05/06 09:12:23;;;;;;;21.15;10.27;;;;;;;;;;4993113;28;20449;-62
2023/05/06 09:14:48;;;;;;;17.23;10.02;;;;;;;;;;4984311;28;20030;-63
2023/05/06 09:17:25;;;;;;;14.90;9.38;;;;;;;;;;4990181;28;20599;-62
2023/05/06 09:19:51;;;;;;;20.08;9.80;;;;;;;;;;4995408;28;20029;-64
2023/05/06 09:22:17;;;;;;;21.55;7.32;;;;;;;;;;5008640;28;20368;-61
2023/05/06 09:24:42;;;;;;;11.65;7.72;;;;;;;;;;5007403;28;20042;-61
2023/05/06 09:27:08;;;;;;;13.25;7.63;;;;;;;;;;5018421;28;20069;-64
2023/05/06 09:29:33;;;;;;;13.18;7.75;;;;;;;;;;5017250;28;20033;-61
2023/05/06 09:32:03;;;;;;;14.30;7.90;;;;;;;;;;5023308;28;20030;-61
2023/05/06 09:34:28;;;;;;;14.10;7.95;;;;;;;;;;5013563;28;20022;-61
2023/05/06 09:36:55;;;;;;;12.75;7.85;;;;;;;;;;5013595;28;20025;-60
2023/05/06 09:39:24;;;;;;;16.38;7.47;;;;;;;;;;5022481;28;20025;-62
2023/05/06 09:41:49;;;;;;;13.25;7.75;;;;;;;;;;5021867;28;20022;-61
2023/05/06 09:44:15;;;;;;;17.08;7.93;;;;;;;;;;5013316;28;20424;-61
2023/05/06 09:46:40;;;;;;;13.82;8.05;;;;;;;;;;5008159;28;20033;-62
2023/05/06 09:49:06;;;;;;;15.60;8.23;;;;;;;;;;5028709;28;20503;-62
2023/05/06 09:51:31;;;;;;;12.77;8.57;;;;;;;;;;5021823;28;20033;-62
2023/05/06 09:53:57;;;;;;;15.95;7.57;;;;;;;;;;5025960;28;20025;-62
2023/05/06 09:56:23;;;;;;;12.00;7.65;;;;;;;;;;5022312;28;20070;-61
2023/05/06 09:58:48;;;;;;;13.93;8.20;;;;;;;;;;5026929;28;20369;-64
2023/05/06 10:01:14;;;;;;;12.55;7.57;;;;;;;;;;5007519;28;20067;-61
2023/05/06 10:03:41;;;;;;;13.50;8.90;;;;;;;;;;5018799;28;20078;-61
2023/05/06 10:06:06;;;;;;;12.23;7.70;;;;;;;;;;5012632;28;20025;-62
2023/05/06 10:08:32;;;;;;;17.50;8.15;;;;;;;;;;5012609;28;20018;-59
2023/05/06 10:10:59;;;;;;;13.10;7.93;;;;;;;;;;5018481;28;20022;-61
2023/05/06 10:13:24;;;;;;;16.55;8.48;;;;;;;;;;5032626;28;20029;-61
2023/05/06 10:15:50;;;;;;;14.52;8.00;;;;;;;;;;5013280;28;20022;-62
2023/05/06 10:18:16;;;;;;;14.70;8.32;;;;;;;;;;5015032;28;20084;-62
2023/05/06 10:20:41;;;;;;;13.30;7.45;;;;;;;;;;5025789;28;20040;-63
2023/05/06 10:23:11;;;;;;;16.67;8.50;;;;;;;;;;5012594;28;20026;-61
2023/05/06 10:25:44;;;;;;;12.85;7.60;;;;;;;;;;5031636;28;20017;-62
2023/05/06 10:28:10;;;;;;;12.00;7.72;;;;;;;;;;5019520;28;20025;-64
2023/05/06 10:30:36;;;;;;;16.02;8.38;;;;;;;;;;5032221;28;20021;-60
2023/05/06 10:33:05;;;;;;;14.63;8.40;;;;;;;;;;5032142;28;20379;-61
2023/05/06 10:35:40;;;;;;;14.52;7.45;;;;;;;;;;5031832;28;20478;-61
2023/05/06 10:38:08;;;;;;;11.45;7.53;;;;;;;;;;5030263;28;20049;-62
2023/05/06 10:40:33;;;;;;;13.20;6.80;;;;;;;;;;5011870;28;20131;-63
2023/05/06 10:43:17;;;;;;;10.63;6.85;;;;;;;;;;5025652;28;20503;-61
2023/05/06 10:46:11;;;;;;;14.73;7.38;;;;;;;;;;5023322;28;20029;-62
2023/05/06 10:48:38;;;;;;;14.95;7.93;;;;;;;;;;5015170;28;20057;-62
2023/05/06 10:51:15;;;;;;;13.30;7.78;;;;;;;;;;5013475;28;20025;-60
2023/05/06 10:53:59;;;;;;;14.63;7.68;;;;;;;;;;5024954;28;20160;-65
2023/05/06 10:56:25;;;;;;;9.95;6.30;;;;;;;;;;5018088;28;20063;-62
2023/05/06 10:58:50;;;;;;;14.13;7.05;;;;;;;;;;5018011;28;20029;-64
2023/05/06 11:01:16;;;;;;;10.40;7.32;;;;;;;;;;5012838;28;20662;-62
2023/05/06 11:03:42;;;;;;;13.95;8.05;;;;;;;;;;5009822;28;20549;-64
2023/05/06 11:06:07;;;;;;;12.23;7.80;;;;;;;;;;5019381;28;20026;-62
2023/05/06 11:08:32;;;;;;;13.38;7.70;;;;;;;;;;5011183;28;20014;-64
2023/05/06 11:10:58;;;;;;;10.77;7.22;;;;;;;;;;5012408;28;20020;-64
2023/05/06 11:13:27;;;;;;;7.90;5.15;;;;;;;;;;5017867;28;20096;-66
2023/05/06 11:15:53;;;;;;;9.80;5.40;;;;;;;;;;5021977;28;20376;-65
2023/05/06 11:18:32;;;;;;;12.27;7.30;;;;;;;;;;5005240;28;20018;-66
2023/05/06 11:21:04;;;;;;;26.83;6.78;;;;;;;;;;5008163;28;20053;-64
2023/05/06 11:23:41;;;;;;;11.48;6.15;;;;;;;;;;5015099;28;20040;-62
2023/05/06 11:26:07;;;;;;;11.05;6.32;;;;;;;;;;5014629;28;20124;-67
2023/05/06 11:28:32;;;;;;;9.50;5.80;;;;;;;;;;5017115;28;20018;-67
2023/05/06 11:30:58;;;;;;;10.02;5.75;;;;;;;;;;5016755;28;20425;-66
2023/05/06 11:33:26;;;;;;;9.60;5.43;;;;;;;;;;5029126;28;20025;-68
2023/05/06 11:35:52;;;;;;;9.48;5.32;;;;;;;;;;5020187;28;20113;-66
2023/05/06 11:38:17;;;;;;;10.18;5.88;;;;;;;;;;5030027;28;20205;-67
2023/05/06 11:40:42;;;;;;;9.27;6.03;;;;;;;;;;5014806;28;20096;-65
2023/05/06 11:43:08;;;;;;;10.88;6.32;;;;;;;;;;5017029;28;20021;-65
2023/05/06 11:45:40;;;;;;;11.82;7.25;;;;;;;;;;5031855;28;20059;-64
2023/05/06 11:48:06;;;;;;;10.10;6.25;;;;;;;;;;5008918;28;20025;-65
2023/05/06 11:50:31;;;;;;;13.73;7.10;;;;;;;;;;5005569;28;20030;-64
2023/05/06 11:52:57;;;;;;;14.10;7.60;;;;;;;;;;5008140;28;20021;-67
2023/05/06 11:55:22;;;;;;;11.25;8.18;;;;;;;;;;5017274;28;20056;-66
2023/05/06 11:57:47;;;;;;;9.27;6.68;;;;;;;;;;5007134;28;20022;-67
2023/05/06 12:00:13;;;;;;;13.73;7.47;;;;;;;;;;5011064;28;20025;-66
2023/05/06 12:02:38;;;;;;;12.20;8.32;;;;;;;;;;5020968;28;20018;-65
2023/05/06 12:05:03;;;;;;;10.60;7.30;;;;;;;;;;5011253;28;20018;-67
2023/05/06 12:07:29;;;;;;;10.27;6.95;;;;;;;;;;5003462;28;20055;-66
2023/05/06 12:09:54;;;;;;;9.30;6.13;;;;;;;;;;5010310;28;20026;-65
2023/05/06 12:12:21;;;;;;;10.52;6.68;;;;;;;;;;5011415;28;20132;-62
2023/05/06 12:14:48;;;;;;;8.98;5.70;;;;;;;;;;5026744;22;20328;-69
2023/05/06 12:17:13;;;;;;;11.18;6.40;;;;;;;;;;5027570;28;20565;-69
2023/05/06 12:19:41;;;;;;;15.00;6.60;;;;;;;;;;5019694;28;20022;-70
2023/05/06 12:22:23;;;;;;;13.10;6.35;;;;;;;;;;5024708;28;20014;-72
2023/05/06 12:24:48;;;;;;;9.98;6.55;;;;;;;;;;5029332;28;20075;-68
2023/05/06 12:27:27;;;;;;;11.00;7.43;;;;;;;;;;5023818;28;20025;-71
2023/05/06 12:29:55;;;;;;;15.00;8.25;;;;;;;;;;5025217;28;20167;-73
2023/05/06 12:32:20;;;;;;;12.70;7.53;;;;;;;;;;5029122;28;20091;-70
2023/05/06 12:34:46;;;;;;;10.80;7.05;;;;;;;;;;5021789;28;20030;-69
2023/05/06 12:37:22;;;;;;;13.77;7.90;;;;;;;;;;5028221;28;20117;-73
2023/05/06 12:39:47;;;;;;;13.38;7.97;;;;;;;;;;5029621;28;20022;-69
2023/05/06 12:42:18;;;;;;;14.98;7.60;;;;;;;;;;5028368;28;20009;-72
2023/05/06 12:44:43;;;;;;;11.48;7.85;;;;;;;;;;5027438;28;20028;-71
2023/05/06 12:47:17;;;;;;;11.27;6.43;;;;;;;;;;5029709;28;20018;-71
2023/05/06 12:49:44;;;;;;;12.45;6.72;;;;;;;;;;5027271;28;20028;-71
2023/05/06 12:52:10;;;;;;;12.93;7.68;;;;;;;;;;5029080;28;20032;-73
2023/05/06 12:54:35;;;;;;;12.63;6.72;;;;;;;;;;5029217;28;20021;-72
2023/05/06 12:57:01;;;;;;;14.77;7.05;;;;;;;;;;5027876;28;20021;-70
2023/05/06 12:59:26;;;;;;;14.15;7.25;;;;;;;;;;5028387;28;20041;-71
2023/05/06 13:01:51;;;;;;;10.68;7.00;;;;;;;;;;5028669;28;20104;-70
2023/05/06 13:04:16;;;;;;;10.90;6.50;;;;;;;;;;5025733;28;20364;-72
2023/05/06 13:06:41;;;;;;;10.70;6.88;;;;;;;;;;5020427;28;20017;-70
2023/05/06 13:09:08;;;;;;;11.27;7.32;;;;;;;;;;5023935;28;20017;-71
2023/05/06 13:11:33;;;;;;;11.77;7.50;;;;;;;;;;5029154;28;20030;-70
2023/05/06 13:13:58;;;;;;;23.88;9.27;;;;;;;;;;5029003;28;20032;-70
2023/05/06 13:16:24;;;;;;;11.32;7.55;;;;;;;;;;5020703;28;20480;-70
2023/05/06 13:18:49;;;;;;;12.65;7.57;;;;;;;;;;5026848;28;20021;-68
2023/05/06 13:21:14;;;;;;;14.30;7.28;;;;;;;;;;5030232;28;20483;-70
2023/05/06 13:23:46;;;;;;;11.80;7.43;;;;;;;;;;5020746;28;20083;-71
2023/05/06 13:26:12;;;;;;;15.07;7.50;;;;;;;;;;5029954;28;20025;-71
2023/05/06 13:28:38;;;;;;;15.05;7.63;;;;;;;;;;5029563;28;20463;-71
2023/05/06 13:31:04;;;;;;;10.82;7.35;;;;;;;;;;5018417;28;20024;-71
2023/05/06 13:33:29;;;;;;;14.20;7.60;;;;;;;;;;5028912;28;20022;-69
2023/05/06 13:35:54;;;;;;;15.18;8.25;;;;;;;;;;5028446;28;20064;-71
2023/05/06 13:38:20;;;;;;;12.55;7.97;;;;;;;;;;5028729;28;20063;-71
2023/05/06 13:40:47;;;;;;;11.55;6.68;;;;;;;;;;5029601;28;20025;-69
2023/05/06 13:43:14;;;;;;;14.70;7.00;;;;;;;;;;5027439;28;20025;-73
2023/05/06 13:45:39;;;;;;;14.13;7.20;;;;;;;;;;5027326;28;20013;-71
2023/05/06 13:48:04;;;;;;;13.40;7.35;;;;;;;;;;5025342;28;20088;-67
2023/05/06 13:50:30;;;;;;;13.07;6.82;;;;;;;;;;5028563;28;20021;-70
2023/05/06 13:52:55;;;;;;;13.68;6.90;;;;;;;;;;5028994;28;20113;-70
2023/05/06 13:55:20;;;;;;;12.05;6.63;;;;;;;;;;5020733;28;20098;-71
2023/05/06 13:57:45;;;;;;;12.77;6.60;;;;;;;;;;5029066;28;20029;-71
2023/05/06 14:00:11;;;;;;;10.90;6.43;;;;;;;;;;5027900;28;20025;-71
2023/05/06 14:02:36;;;;;;;12.18;6.30;;;;;;;;;;5029841;28;20056;-69
2023/05/06 14:05:01;;;;;;;14.32;6.03;;;;;;;;;;5028103;28;20021;-70
2023/05/06 14:07:27;;;;;;;9.95;6.13;;;;;;;;;;5027264;28;20022;-72
2023/05/06 14:09:52;;;;;;;9.95;6.22;;;;;;;;;;5020214;28;20117;-71
2023/05/06 14:12:17;;;;;;;11.73;5.73;;;;;;;;;;5027137;28;20026;-71
2023/05/06 14:14:42;;;;;;;12.82;6.95;;;;;;;;;;5025092;28;20345;-72
2023/05/06 14:17:08;;;;;;;17.65;7.13;;;;;;;;;;5029392;28;20025;-70